Time,TemperatureF,DewpointF,PressureIn,WindDirection,WindDirectionDegrees,WindSpeedMPH,WindSpeedGustMPH,Humidity,HourlyPrecipIn,Conditions,Clouds,dailyrainin,SoftwareType,DateUTC
2013-01-17 09:05:00,53.8,38.4,29.45,ENE,73,1.0,2.0,56,0.00,CLR,,0.18,WeatherDisplay:10.37,2013-01-17 08:05:00,
2013-01-17 09:10:00,53.6,38.3,29.45,ENE,58,1.0,3.0,56,0.00,CLR,,0.18,WeatherDisplay:10.37,2013-01-17 08:10:00,
2013-01-17 09:15:00,53.4,38.6,29.45,NE,45,1.0,2.0,57,0.00,CLR,,0.18,WeatherDisplay:10.37,2013-01-17 08:15:00,
2013-01-17 09:20:00,53.4,38.6,29.45,North,360,1.0,3.0,57,0.00,CLR,,0.18,WeatherDisplay:10.37,2013-01-17 08:20:00,
2013-01-17 09:25:00,53.2,38.8,29.45,NNE,22,1.0,2.0,58,0.00,CLR,,0.18,WeatherDisplay:10.37,2013-01-17 08:25:00,
2013-01-17 09:30:00,53.2,38.8,29.45,East,90,1.0,3.0,58,0.00,CLR,,0.18,WeatherDisplay:10.37,2013-01-17 08:30:00,
2013-01-17 09:35:00,53.1,39.1,29.44,East,90,0.0,0.0,59,0.00,CLR,,0.18,WeatherDisplay:10.37,2013-01-17 08:35:00,
2013-01-17 09:40:00,53.1,39.1,29.44,ENE,68,0.0,2.0,59,0.00,CLR,,0.18,WeatherDisplay:10.37,2013-01-17 08:40:00,
2013-01-17 09:45:00,53.1,38.7,29.44,NNE,19,1.0,3.0,58,0.00,CLR,,0.18,WeatherDisplay:10.37,2013-01-17 08:45:00,
2013-01-17 13:22:00,57.2,36.6,30.28,SW,225,1.2,1.2,46,0.00,CLR,,0.18,WeatherDisplay:10.37,2013-01-17 12:22:00,
2013-01-17 13:23:00,54.5,41.3,29.48,SE,135,1.2,1.2,61,0.00,CLR,,0.18,WeatherDisplay:10.37,2013-01-17 12:23:00,
2013-01-17 13:28:00,54.5,40.5,29.47,East,90,4.6,4.6,59,0.00,CLR,,0.18,WeatherDisplay:10.37,2013-01-17 12:28:00,
2013-01-17 13:33:00,54.3,39.4,29.47,NE,45,4.6,4.6,57,0.00,CLR,,0.18,WeatherDisplay:10.37,2013-01-17 12:33:00,
2013-01-17 13:38:00,54.3,39.4,29.47,East,90,3.5,3.5,57,0.00,CLR,,0.18,WeatherDisplay:10.37,2013-01-17 12:38:00,
2013-01-17 13:43:00,54.3,39.4,29.47,NE,45,3.5,3.5,57,0.00,CLR,,0.18,WeatherDisplay:10.37,2013-01-17 12:43:00,
2013-01-17 13:48:00,54.3,38.9,29.47,NE,45,4.6,4.6,56,0.00,CLR,,0.18,WeatherDisplay:10.37,2013-01-17 12:48:00,
2013-01-17 13:53:00,54.3,38.9,29.47,East,90,5.8,5.8,56,0.00,CLR,,0.18,WeatherDisplay:10.37,2013-01-17 12:53:00,
2013-01-17 13:58:00,54.1,38.8,29.47,East,90,4.6,4.6,56,0.00,CLR,,0.18,WeatherDisplay:10.37,2013-01-17 12:58:00,
2013-01-17 14:03:00,54.1,38.8,29.47,NE,45,4.6,4.6,56,0.00,CLR,,0.18,WeatherDisplay:10.37,2013-01-17 13:03:00,
2013-01-17 14:08:00,54.9,39.0,29.47,NW,315,4.6,4.6,55,0.00,CLR,,0.18,WeatherDisplay:10.37,2013-01-17 13:08:00,
2013-01-17 14:13:00,55.0,39.2,29.47,West,270,5.8,5.8,55,0.00,CLR,,0.18,WeatherDisplay:10.37,2013-01-17 13:13:00,
2013-01-17 14:18:00,55.6,38.7,29.46,East,90,3.5,3.5,53,0.00,CLR,,0.18,WeatherDisplay:10.37,2013-01-17 13:18:00,
2013-01-17 14:27:00,55.2,37.4,29.46,NW,315,4.6,4.6,51,0.00,CLR,,0.18,WeatherDisplay:10.37,2013-01-17 13:27:00,
2013-01-17 14:32:00,55.0,37.2,29.47,North,0,5.8,5.8,51,0.00,CLR,,0.18,WeatherDisplay:10.37,2013-01-17 13:32:00,
2013-01-17 14:37:00,54.7,36.9,29.46,NNW,338,3.5,3.5,51,0.00,CLR,,0.18,WeatherDisplay:10.37,2013-01-17 13:37:00,
2013-01-17 14:42:00,54.5,37.2,29.46,East,90,3.5,0.0,52,0.00,CLR,,0.18,WeatherDisplay:10.37,2013-01-17 13:42:00,
2013-01-17 14:47:00,54.3,37.5,29.46,East,90,1.2,1.6,53,0.00,CLR,,0.18,WeatherDisplay:10.37,2013-01-17 13:47:00,
2013-01-17 14:52:00,54.3,38.0,29.46,East,90,4.6,4.6,54,0.00,CLR,,0.18,WeatherDisplay:10.37,2013-01-17 13:52:00,
2013-01-17 14:57:00,54.1,37.8,29.46,North,0,2.3,2.3,54,0.00,CLR,,0.18,WeatherDisplay:10.37,2013-01-17 13:57:00,
2013-01-17 15:02:00,54.0,37.7,29.46,ENE,68,4.6,4.6,54,0.00,CLR,,0.18,WeatherDisplay:10.37,2013-01-17 14:02:00,
2013-01-17 17:10:00,46.4,36.4,29.44,NE,49,6.0,8.0,68,0.00,RA,,0.34,WeatherDisplay:10.37,2013-01-17 16:10:00,
2013-01-17 17:15:00,46.4,36.8,29.44,ENE,74,5.0,8.0,69,0.00,RA,,0.34,WeatherDisplay:10.37,2013-01-17 16:15:00,
2013-01-17 17:20:00,46.2,37.0,29.44,East,85,6.0,10.0,70,0.00,CLR,,0.34,WeatherDisplay:10.37,2013-01-17 16:20:00,
2013-01-17 17:25:00,46.0,36.8,29.45,ENE,62,1.0,10.0,70,0.00,CLR,,0.34,WeatherDisplay:10.37,2013-01-17 16:25:00,
2013-01-17 17:30:00,45.9,36.6,29.44,NE,46,1.0,4.0,70,0.00,CLR,,0.34,WeatherDisplay:10.37,2013-01-17 16:30:00,
2013-01-17 17:35:00,45.7,36.5,29.45,NE,50,1.0,5.0,70,0.00,CLR,,0.34,WeatherDisplay:10.37,2013-01-17 16:35:00,
2013-01-17 17:40:00,45.5,36.3,29.44,NNW,345,1.0,5.0,70,0.00,CLR,,0.34,WeatherDisplay:10.37,2013-01-17 16:40:00,
2013-01-17 17:45:00,45.3,36.1,29.44,North,11,1.0,5.0,70,0.00,CLR,,0.34,WeatherDisplay:10.37,2013-01-17 16:45:00,
2013-01-17 17:50:00,45.1,35.9,29.44,NE,39,1.0,4.0,70,0.00,CLR,,0.34,WeatherDisplay:10.37,2013-01-17 16:50:00,
2013-01-17 17:55:00,45.1,35.9,29.45,North,357,1.0,4.0,70,0.00,CLR,,0.34,WeatherDisplay:10.37,2013-01-17 16:55:00,
2013-01-17 18:00:00,44.8,35.9,29.45,North,358,0.0,3.0,71,0.00,CLR,,0.34,WeatherDisplay:10.37,2013-01-17 17:00:00,
2013-01-17 18:05:00,44.6,35.8,29.46,NE,55,1.0,3.0,71,0.00,RA,,0.00,WeatherDisplay:10.37,2013-01-17 17:05:00,
2013-01-17 18:10:00,44.4,36.0,29.46,SE,136,0.0,3.0,72,0.00,RA,,0.00,WeatherDisplay:10.37,2013-01-17 17:10:00,
2013-01-17 18:15:00,44.2,35.8,29.47,SE,138,3.0,5.0,72,0.00,CLR,,0.00,WeatherDisplay:10.37,2013-01-17 17:15:00,
2013-01-17 18:20:00,43.7,35.3,29.46,East,89,3.0,7.0,72,0.01,RA,,0.01,WeatherDisplay:10.37,2013-01-17 17:20:00,
2013-01-17 18:25:00,43.2,35.1,29.46,NNE,17,1.0,7.0,73,0.01,RA,,0.01,WeatherDisplay:10.37,2013-01-17 17:25:00,
2013-01-17 18:30:00,42.8,35.1,29.46,North,356,1.0,4.0,74,0.00,CLR,,0.01,WeatherDisplay:10.37,2013-01-17 17:30:00,
2013-01-17 18:35:00,42.6,35.2,29.46,NE,36,1.0,4.0,75,0.00,CLR,,0.01,WeatherDisplay:10.37,2013-01-17 17:35:00,
2013-01-17 18:40:00,42.4,35.1,29.46,NE,39,1.0,4.0,75,0.00,CLR,,0.01,WeatherDisplay:10.37,2013-01-17 17:40:00,
2013-01-17 18:45:00,42.4,35.1,29.46,North,2,2.0,4.0,75,0.00,CLR,,0.01,WeatherDisplay:10.37,2013-01-17 17:45:00,
2013-01-17 18:50:00,42.3,35.2,29.46,North,10,1.0,4.0,76,0.00,CLR,,0.01,WeatherDisplay:10.37,2013-01-17 17:50:00,
2013-01-17 18:55:00,42.3,35.2,29.46,North,360,2.0,4.0,76,0.00,CLR,,0.01,WeatherDisplay:10.37,2013-01-17 17:55:00,
2013-01-17 19:00:00,42.1,35.1,29.45,NNW,329,1.0,4.0,76,0.00,CLR,,0.01,WeatherDisplay:10.37,2013-01-17 18:00:00,
2013-01-17 19:05:00,41.9,35.2,29.45,NNW,329,1.0,3.0,77,0.00,CLR,,0.01,WeatherDisplay:10.37,2013-01-17 18:05:00,
2013-01-17 19:10:00,41.9,35.2,29.45,WNW,296,1.0,4.0,77,0.00,CLR,,0.01,WeatherDisplay:10.37,2013-01-17 18:10:00,
2013-01-17 19:53:00,53.1,38.7,29.44,North,0,3.5,3.5,58,0.00,CLR,,0.18,WeatherDisplay:10.37,2013-01-17 18:53:00,
2013-01-17 19:58:00,44.1,38.6,29.47,ENE,68,3.5,3.5,81,0.13,RA,,0.31,WeatherDisplay:10.37,2013-01-17 18:58:00,
2013-01-17 20:03:00,44.2,38.8,29.46,SE,135,5.8,5.8,81,0.13,RA,,0.31,WeatherDisplay:10.37,2013-01-17 19:03:00,
2013-01-17 20:08:00,44.2,38.5,29.47,North,0,3.5,3.5,80,0.13,CLR,,0.31,WeatherDisplay:10.37,2013-01-17 19:08:00,
2013-01-17 20:13:00,44.2,38.5,29.46,NW,315,5.8,5.8,80,0.13,CLR,,0.31,WeatherDisplay:10.37,2013-01-17 19:13:00,
2013-01-17 20:18:00,44.2,38.5,29.46,NW,315,2.3,0.0,80,0.13,CLR,,0.31,WeatherDisplay:10.37,2013-01-17 19:18:00,
2013-01-17 20:23:00,44.2,38.1,29.46,North,0,2.3,2.3,79,0.13,CLR,,0.31,WeatherDisplay:10.37,2013-01-17 19:23:00,
2013-01-17 20:28:00,44.2,38.1,29.46,North,0,1.2,1.6,79,0.13,CLR,,0.31,WeatherDisplay:10.37,2013-01-17 19:28:00,
2013-01-17 20:33:00,44.4,38.3,29.46,North,0,2.3,2.3,79,0.13,CLR,,0.31,WeatherDisplay:10.37,2013-01-17 19:33:00,
2013-01-17 20:38:00,44.4,38.3,29.46,North,0,2.3,0.0,79,0.13,CLR,,0.31,WeatherDisplay:10.37,2013-01-17 19:38:00,
2013-01-17 20:44:00,44.4,38.3,29.46,East,90,1.2,0.0,79,0.13,CLR,,0.31,WeatherDisplay:10.37,2013-01-17 19:44:00,
2013-01-17 20:49:00,44.6,38.5,29.46,South,180,1.2,0.0,79,0.13,CLR,,0.31,WeatherDisplay:10.37,2013-01-17 19:49:00,
2013-01-17 20:54:00,44.6,38.5,29.45,West,270,3.5,3.5,79,0.13,CLR,,0.31,WeatherDisplay:10.37,2013-01-17 19:54:00,
2013-01-17 20:59:00,44.6,38.5,29.45,SW,225,3.5,3.5,79,0.00,CLR,,0.31,WeatherDisplay:10.37,2013-01-17 19:59:00,
2013-01-17 21:04:00,44.6,38.8,29.45,SW,225,1.2,0.0,80,0.00,CLR,,0.31,WeatherDisplay:10.37,2013-01-17 20:04:00,
2013-01-17 21:09:00,44.8,39.0,29.46,SW,225,0.0,0.0,80,0.00,CLR,,0.31,WeatherDisplay:10.37,2013-01-17 20:09:00,
2013-01-17 21:14:00,44.8,39.0,29.46,SW,225,0.0,0.0,80,0.00,CLR,,0.31,WeatherDisplay:10.37,2013-01-17 20:14:00,
2013-01-17 21:19:00,45.0,39.2,29.46,ENE,68,3.5,0.0,80,0.01,RA,,0.32,WeatherDisplay:10.37,2013-01-17 20:19:00,
2013-01-17 21:24:00,44.8,39.0,29.46,East,90,4.6,4.6,80,0.01,RA,,0.32,WeatherDisplay:10.37,2013-01-17 20:24:00,
2013-01-17 21:29:00,44.6,38.5,29.46,SW,225,3.5,3.5,79,0.01,CLR,,0.32,WeatherDisplay:10.37,2013-01-17 20:29:00,
2013-01-17 21:34:00,44.6,38.5,29.47,East,90,3.5,3.5,79,0.01,CLR,,0.32,WeatherDisplay:10.37,2013-01-17 20:34:00,
2013-01-17 21:39:00,44.4,38.0,29.47,NW,315,3.5,3.5,78,0.01,CLR,,0.32,WeatherDisplay:10.37,2013-01-17 20:39:00,
2013-01-17 21:44:00,44.2,37.5,29.47,North,0,3.5,3.8,77,0.02,RA,,0.33,WeatherDisplay:10.37,2013-01-17 20:44:00,
2013-01-17 21:49:00,43.9,37.5,29.46,East,90,4.6,4.6,78,0.02,RA,,0.33,WeatherDisplay:10.37,2013-01-17 20:49:00,
2013-01-17 21:54:00,43.7,37.3,29.45,South,180,2.3,0.0,78,0.04,RA,,0.34,WeatherDisplay:10.37,2013-01-17 20:54:00,
2013-01-17 21:59:00,43.5,37.1,29.46,East,90,1.2,0.0,78,0.04,RA,,0.34,WeatherDisplay:10.37,2013-01-17 20:59:00,
2013-01-17 22:04:00,43.5,37.4,29.46,NE,45,3.5,3.5,79,0.04,CLR,,0.34,WeatherDisplay:10.37,2013-01-17 21:04:00,
2013-01-17 22:09:00,43.7,37.6,29.46,NE,45,2.3,2.3,79,0.04,CLR,,0.34,WeatherDisplay:10.37,2013-01-17 21:09:00,
2013-01-17 22:14:00,43.5,37.4,29.46,East,90,1.2,0.0,79,0.04,CLR,,0.34,WeatherDisplay:10.37,2013-01-17 21:14:00,
2013-01-17 22:19:00,43.5,37.4,29.45,West,270,1.2,0.0,79,0.02,CLR,,0.34,WeatherDisplay:10.37,2013-01-17 21:19:00,
2013-01-17 22:24:00,43.7,37.6,29.45,East,90,3.5,3.5,79,0.02,CLR,,0.34,WeatherDisplay:10.37,2013-01-17 21:24:00,
2013-01-17 22:29:00,43.7,37.9,29.45,East,90,1.2,0.0,80,0.02,CLR,,0.34,WeatherDisplay:10.37,2013-01-17 21:29:00,
2013-01-17 22:34:00,43.7,37.9,29.45,North,0,5.8,0.0,80,0.02,CLR,,0.34,WeatherDisplay:10.37,2013-01-17 21:34:00,
2013-01-17 22:39:00,43.9,38.1,29.45,NE,45,2.3,0.0,80,0.02,CLR,,0.34,WeatherDisplay:10.37,2013-01-17 21:39:00,
2013-01-17 22:44:00,44.1,38.3,29.45,West,270,3.5,3.5,80,0.01,CLR,,0.34,WeatherDisplay:10.37,2013-01-17 21:44:00,
2013-01-17 22:49:00,44.6,38.2,29.45,ENE,68,10.4,10.4,78,0.01,CLR,,0.34,WeatherDisplay:10.37,2013-01-17 21:49:00,
2013-01-17 22:54:00,45.1,37.7,29.44,ENE,68,10.4,10.4,75,0.00,CLR,,0.34,WeatherDisplay:10.37,2013-01-17 21:54:00,
2013-01-17 22:59:00,45.7,37.2,29.44,East,90,6.9,6.9,72,0.00,CLR,,0.34,WeatherDisplay:10.37,2013-01-17 21:59:00,
2013-01-17 23:04:00,45.9,37.3,29.44,NE,45,3.5,3.5,72,0.00,CLR,,0.34,WeatherDisplay:10.37,2013-01-17 22:04:00,
2013-01-17 23:09:00,46.2,37.0,29.45,NE,45,10.4,10.4,70,0.00,CLR,,0.34,WeatherDisplay:10.37,2013-01-17 22:09:00,